sensor_id;sensor_type;location;lat;lon;timestamp;P1;durP1;ratioP1;P2;durP2;ratioP2
71475;SDS011;59286;59.274;17.974;2023-02-24T00:01:21;5.60;;;5.07;;
71475;SDS011;59286;59.274;17.974;2023-02-24T00:03:50;5.53;;;4.88;;
71475;SDS011;59286;59.274;17.974;2023-02-24T00:06:16;6.63;;;4.50;;
71475;SDS011;59286;59.274;17.974;2023-02-24T00:08:42;6.90;;;5.45;;
71475;SDS011;59286;59.274;17.974;2023-02-24T00:11:08;5.20;;;4.80;;
71475;SDS011;59286;59.274;17.974;2023-02-24T00:13:36;5.60;;;5.05;;
71475;SDS011;59286;59.274;17.974;2023-02-24T00:16:02;6.05;;;5.45;;
71475;SDS011;59286;59.274;17.974;2023-02-24T00:18:29;6.00;;;5.45;;
71475;SDS011;59286;59.274;17.974;2023-02-24T00:21:01;5.43;;;4.85;;
71475;SDS011;59286;59.274;17.974;2023-02-24T00:23:32;5.30;;;4.80;;
71475;SDS011;59286;59.274;17.974;2023-02-24T00:26:01;6.10;;;5.50;;
71475;SDS011;59286;59.274;17.974;2023-02-24T00:28:27;5.75;;;4.97;;
71475;SDS011;59286;59.274;17.974;2023-02-24T00:30:53;5.90;;;5.32;;
71475;SDS011;59286;59.274;17.974;2023-02-24T00:33:22;6.72;;;6.13;;
71475;SDS011;59286;59.274;17.974;2023-02-24T00:35:48;6.45;;;5.50;;
71475;SDS011;59286;59.274;17.974;2023-02-24T00:38:15;7.28;;;6.57;;
71475;SDS011;59286;59.274;17.974;2023-02-24T00:40:41;7.00;;;6.05;;
71475;SDS011;59286;59.274;17.974;2023-02-24T00:43:09;7.05;;;6.18;;
71475;SDS011;59286;59.274;17.974;2023-02-24T00:45:37;6.18;;;5.57;;
71475;SDS011;59286;59.274;17.974;2023-02-24T00:48:05;8.40;;;7.53;;
71475;SDS011;59286;59.274;17.974;2023-02-24T00:50:34;7.70;;;7.00;;
71475;SDS011;59286;59.274;17.974;2023-02-24T00:53:02;7.63;;;6.93;;
71475;SDS011;59286;59.274;17.974;2023-02-24T00:55:28;7.07;;;6.20;;
71475;SDS011;59286;59.274;17.974;2023-02-24T00:58:00;7.03;;;6.40;;
71475;SDS011;59286;59.274;17.974;2023-02-24T01:00:26;7.93;;;7.13;;
71475;SDS011;59286;59.274;17.974;2023-02-24T01:02:52;7.97;;;7.25;;
71475;SDS011;59286;59.274;17.974;2023-02-24T01:05:18;8.07;;;7.20;;
71475;SDS011;59286;59.274;17.974;2023-02-24T01:07:44;7.75;;;6.93;;
71475;SDS011;59286;59.274;17.974;2023-02-24T01:10:10;8.50;;;7.60;;
71475;SDS011;59286;59.274;17.974;2023-02-24T01:12:36;8.20;;;7.25;;
71475;SDS011;59286;59.274;17.974;2023-02-24T01:15:17;6.65;;;5.82;;
71475;SDS011;59286;59.274;17.974;2023-02-24T01:17:45;7.03;;;6.32;;
71475;SDS011;59286;59.274;17.974;2023-02-24T01:20:11;9.07;;;8.13;;
71475;SDS011;59286;59.274;17.974;2023-02-24T01:22:41;8.02;;;6.40;;
71475;SDS011;59286;59.274;17.974;2023-02-24T01:25:11;10.05;;;9.00;;
71475;SDS011;59286;59.274;17.974;2023-02-24T01:27:37;8.23;;;7.43;;
71475;SDS011;59286;59.274;17.974;2023-02-24T01:30:06;9.70;;;8.77;;
71475;SDS011;59286;59.274;17.974;2023-02-24T01:32:37;10.07;;;8.73;;
71475;SDS011;59286;59.274;17.974;2023-02-24T01:35:03;9.35;;;7.47;;
71475;SDS011;59286;59.274;17.974;2023-02-24T01:37:28;7.70;;;7.00;;
71475;SDS011;59286;59.274;17.974;2023-02-24T01:39:54;7.40;;;6.70;;
71475;SDS011;59286;59.274;17.974;2023-02-24T01:42:20;8.05;;;6.82;;
71475;SDS011;59286;59.274;17.974;2023-02-24T01:47:11;8.55;;;7.65;;
71475;SDS011;59286;59.274;17.974;2023-02-24T01:49:39;9.60;;;8.60;;
71475;SDS011;59286;59.274;17.974;2023-02-24T01:52:13;9.35;;;8.38;;
71475;SDS011;59286;59.274;17.974;2023-02-24T01:54:48;9.10;;;8.20;;
71475;SDS011;59286;59.274;17.974;2023-02-24T01:59:47;9.63;;;8.73;;
71475;SDS011;59286;59.274;17.974;2023-02-24T02:02:15;10.35;;;9.38;;
71475;SDS011;59286;59.274;17.974;2023-02-24T02:04:45;12.02;;;10.73;;
71475;SDS011;59286;59.274;17.974;2023-02-24T02:07:15;11.55;;;9.98;;
71475;SDS011;59286;59.274;17.974;2023-02-24T02:09:44;12.55;;;11.25;;
71475;SDS011;59286;59.274;17.974;2023-02-24T02:12:11;11.95;;;10.75;;
71475;SDS011;59286;59.274;17.974;2023-02-24T02:14:38;12.25;;;11.07;;
71475;SDS011;59286;59.274;17.974;2023-02-24T02:17:15;13.98;;;11.75;;
71475;SDS011;59286;59.274;17.974;2023-02-24T02:19:47;13.63;;;12.32;;
71475;SDS011;59286;59.274;17.974;2023-02-24T02:36:46;13.32;;;11.45;;
71475;SDS011;59286;59.274;17.974;2023-02-24T02:39:58;16.55;;;13.73;;
71475;SDS011;59286;59.274;17.974;2023-02-24T02:42:20;13.18;;;11.77;;
71475;SDS011;59286;59.274;17.974;2023-02-24T02:48:42;15.25;;;13.65;;
71475;SDS011;59286;59.274;17.974;2023-02-24T02:50:51;13.55;;;12.23;;
71475;SDS011;59286;59.274;17.974;2023-02-24T02:53:23;15.57;;;13.80;;
71475;SDS011;59286;59.274;17.974;2023-02-24T02:58:33;13.82;;;12.52;;
71475;SDS011;59286;59.274;17.974;2023-02-24T03:01:02;14.93;;;13.30;;
71475;SDS011;59286;59.274;17.974;2023-02-24T03:03:32;15.50;;;13.90;;
71475;SDS011;59286;59.274;17.974;2023-02-24T03:06:02;15.93;;;14.27;;
71475;SDS011;59286;59.274;17.974;2023-02-24T03:08:33;14.57;;;13.07;;
71475;SDS011;59286;59.274;17.974;2023-02-24T03:11:03;11.50;;;10.35;;
71475;SDS011;59286;59.274;17.974;2023-02-24T03:13:36;12.30;;;11.02;;
71475;SDS011;59286;59.274;17.974;2023-02-24T03:16:05;11.95;;;10.70;;
71475;SDS011;59286;59.274;17.974;2023-02-24T03:18:36;12.38;;;11.07;;
71475;SDS011;59286;59.274;17.974;2023-02-24T03:21:10;13.02;;;11.63;;
71475;SDS011;59286;59.274;17.974;2023-02-24T03:23:50;11.98;;;10.77;;
71475;SDS011;59286;59.274;17.974;2023-02-24T03:26:23;12.90;;;11.60;;
71475;SDS011;59286;59.274;17.974;2023-02-24T03:31:31;13.68;;;12.27;;
71475;SDS011;59286;59.274;17.974;2023-02-24T03:36:45;11.52;;;10.43;;
71475;SDS011;59286;59.274;17.974;2023-02-24T03:39:11;11.00;;;9.88;;
71475;SDS011;59286;59.274;17.974;2023-02-24T03:41:44;12.20;;;11.00;;
71475;SDS011;59286;59.274;17.974;2023-02-24T03:44:20;11.93;;;10.73;;
71475;SDS011;59286;59.274;17.974;2023-02-24T03:46:46;13.13;;;11.70;;
71475;SDS011;59286;59.274;17.974;2023-02-24T03:49:12;13.63;;;12.25;;
71475;SDS011;59286;59.274;17.974;2023-02-24T03:51:41;12.30;;;11.02;;
71475;SDS011;59286;59.274;17.974;2023-02-24T03:54:23;12.50;;;11.30;;
71475;SDS011;59286;59.274;17.974;2023-02-24T04:00:26;12.07;;;10.82;;
71475;SDS011;59286;59.274;17.974;2023-02-24T04:05:50;12.50;;;9.93;;
71475;SDS011;59286;59.274;17.974;2023-02-24T04:08:44;10.35;;;9.45;;
71475;SDS011;59286;59.274;17.974;2023-02-24T04:11:19;12.57;;;10.25;;
71475;SDS011;59286;59.274;17.974;2023-02-24T04:13:57;10.65;;;9.55;;
71475;SDS011;59286;59.274;17.974;2023-02-24T04:17:13;10.20;;;9.20;;
71475;SDS011;59286;59.274;17.974;2023-02-24T04:19:31;10.70;;;9.70;;
71475;SDS011;59286;59.274;17.974;2023-02-24T04:22:02;11.82;;;10.68;;
71475;SDS011;59286;59.274;17.974;2023-02-24T04:24:30;11.48;;;10.40;;
71475;SDS011;59286;59.274;17.974;2023-02-24T04:26:58;12.02;;;10.77;;
71475;SDS011;59286;59.274;17.974;2023-02-24T04:29:27;13.45;;;9.55;;
71475;SDS011;59286;59.274;17.974;2023-02-24T04:32:00;11.00;;;9.90;;
71475;SDS011;59286;59.274;17.974;2023-02-24T04:34:29;12.55;;;9.50;;
71475;SDS011;59286;59.274;17.974;2023-02-24T04:36:56;12.18;;;10.15;;
71475;SDS011;59286;59.274;17.974;2023-02-24T04:39:23;10.60;;;9.65;;
71475;SDS011;59286;59.274;17.974;2023-02-24T04:41:49;11.32;;;10.07;;
71475;SDS011;59286;59.274;17.974;2023-02-24T04:44:15;11.20;;;10.18;;
71475;SDS011;59286;59.274;17.974;2023-02-24T04:46:45;9.88;;;8.93;;
71475;SDS011;59286;59.274;17.974;2023-02-24T04:49:11;11.55;;;10.35;;
71475;SDS011;59286;59.274;17.974;2023-02-24T04:51:37;12.75;;;11.25;;
71475;SDS011;59286;59.274;17.974;2023-02-24T04:54:10;13.13;;;11.82;;
71475;SDS011;59286;59.274;17.974;2023-02-24T04:56:41;11.40;;;10.20;;
71475;SDS011;59286;59.274;17.974;2023-02-24T04:59:08;11.00;;;9.90;;
71475;SDS011;59286;59.274;17.974;2023-02-24T05:01:35;11.95;;;10.85;;
71475;SDS011;59286;59.274;17.974;2023-02-24T05:04:05;11.93;;;10.80;;
71475;SDS011;59286;59.274;17.974;2023-02-24T05:06:32;11.77;;;10.68;;
71475;SDS011;59286;59.274;17.974;2023-02-24T05:08:58;12.35;;;11.02;;
71475;SDS011;59286;59.274;17.974;2023-02-24T05:11:26;11.85;;;10.30;;
71475;SDS011;59286;59.274;17.974;2023-02-24T05:13:58;12.25;;;11.05;;
71475;SDS011;59286;59.274;17.974;2023-02-24T05:16:24;10.02;;;9.13;;
71475;SDS011;59286;59.274;17.974;2023-02-24T05:18:52;9.82;;;8.85;;
71475;SDS011;59286;59.274;17.974;2023-02-24T05:21:38;9.40;;;8.27;;
71475;SDS011;59286;59.274;17.974;2023-02-24T05:24:05;9.27;;;8.30;;
71475;SDS011;59286;59.274;17.974;2023-02-24T05:26:32;9.30;;;7.00;;
71475;SDS011;59286;59.274;17.974;2023-02-24T05:29:00;6.65;;;6.05;;
71475;SDS011;59286;59.274;17.974;2023-02-24T05:31:27;7.85;;;7.05;;
71475;SDS011;59286;59.274;17.974;2023-02-24T05:33:55;8.85;;;7.95;;
71475;SDS011;59286;59.274;17.974;2023-02-24T05:36:23;9.95;;;8.93;;
71475;SDS011;59286;59.274;17.974;2023-02-24T05:38:51;7.88;;;7.07;;
71475;SDS011;59286;59.274;17.974;2023-02-24T05:41:32;7.93;;;7.13;;
71475;SDS011;59286;59.274;17.974;2023-02-24T05:44:04;7.93;;;7.22;;
71475;SDS011;59286;59.274;17.974;2023-02-24T05:46:39;7.13;;;6.38;;
71475;SDS011;59286;59.274;17.974;2023-02-24T05:49:07;7.90;;;6.65;;
71475;SDS011;59286;59.274;17.974;2023-02-24T05:51:38;8.48;;;7.68;;
71475;SDS011;59286;59.274;17.974;2023-02-24T05:54:08;7.20;;;6.50;;
71475;SDS011;59286;59.274;17.974;2023-02-24T05:56:36;9.48;;;8.57;;
71475;SDS011;59286;59.274;17.974;2023-02-24T05:59:05;8.13;;;7.38;;
71475;SDS011;59286;59.274;17.974;2023-02-24T06:01:37;9.05;;;8.15;;
71475;SDS011;59286;59.274;17.974;2023-02-24T06:04:05;8.50;;;7.70;;
71475;SDS011;59286;59.274;17.974;2023-02-24T06:06:33;9.20;;;7.78;;
71475;SDS011;59286;59.274;17.974;2023-02-24T06:08:59;9.38;;;8.38;;
71475;SDS011;59286;59.274;17.974;2023-02-24T06:11:26;11.00;;;9.75;;
71475;SDS011;59286;59.274;17.974;2023-02-24T06:13:51;11.60;;;10.27;;
71475;SDS011;59286;59.274;17.974;2023-02-24T06:16:21;9.88;;;8.73;;
71475;SDS011;59286;59.274;17.974;2023-02-24T06:18:49;9.95;;;8.95;;
71475;SDS011;59286;59.274;17.974;2023-02-24T06:21:15;10.50;;;9.30;;
71475;SDS011;59286;59.274;17.974;2023-02-24T06:23:41;9.60;;;8.57;;
71475;SDS011;59286;59.274;17.974;2023-02-24T06:26:06;10.25;;;9.05;;
71475;SDS011;59286;59.274;17.974;2023-02-24T06:28:43;8.55;;;7.72;;
71475;SDS011;59286;59.274;17.974;2023-02-24T06:31:09;8.90;;;7.88;;
71475;SDS011;59286;59.274;17.974;2023-02-24T06:33:39;8.15;;;7.28;;
71475;SDS011;59286;59.274;17.974;2023-02-24T06:36:06;10.45;;;7.38;;
71475;SDS011;59286;59.274;17.974;2023-02-24T06:38:35;8.73;;;6.13;;
71475;SDS011;59286;59.274;17.974;2023-02-24T06:41:01;5.95;;;5.35;;
71475;SDS011;59286;59.274;17.974;2023-02-24T06:43:31;6.50;;;5.80;;
71475;SDS011;59286;59.274;17.974;2023-02-24T06:45:57;5.22;;;4.72;;
71475;SDS011;59286;59.274;17.974;2023-02-24T06:48:23;5.72;;;5.22;;
71475;SDS011;59286;59.274;17.974;2023-02-24T06:50:49;5.82;;;5.22;;
71475;SDS011;59286;59.274;17.974;2023-02-24T06:53:15;5.55;;;5.03;;
71475;SDS011;59286;59.274;17.974;2023-02-24T06:55:42;5.90;;;4.88;;
71475;SDS011;59286;59.274;17.974;2023-02-24T06:58:13;5.70;;;5.07;;
71475;SDS011;59286;59.274;17.974;2023-02-24T07:00:41;5.35;;;4.85;;
71475;SDS011;59286;59.274;17.974;2023-02-24T07:03:14;5.65;;;5.07;;
71475;SDS011;59286;59.274;17.974;2023-02-24T07:05:47;6.35;;;5.35;;
71475;SDS011;59286;59.274;17.974;2023-02-24T07:08:23;5.30;;;4.80;;
71475;SDS011;59286;59.274;17.974;2023-02-24T07:10:54;5.82;;;5.22;;
71475;SDS011;59286;59.274;17.974;2023-02-24T07:13:22;5.38;;;4.55;;
71475;SDS011;59286;59.274;17.974;2023-02-24T07:15:49;7.40;;;4.47;;
71475;SDS011;59286;59.274;17.974;2023-02-24T07:18:16;5.15;;;4.40;;
71475;SDS011;59286;59.274;17.974;2023-02-24T07:20:42;4.97;;;4.50;;
71475;SDS011;59286;59.274;17.974;2023-02-24T07:23:10;4.85;;;4.35;;
71475;SDS011;59286;59.274;17.974;2023-02-24T07:25:36;4.18;;;3.78;;
71475;SDS011;59286;59.274;17.974;2023-02-24T07:28:03;4.50;;;4.10;;
71475;SDS011;59286;59.274;17.974;2023-02-24T07:30:31;4.35;;;3.95;;
71475;SDS011;59286;59.274;17.974;2023-02-24T07:32:57;5.53;;;3.90;;
71475;SDS011;59286;59.274;17.974;2023-02-24T07:35:23;4.95;;;3.80;;
71475;SDS011;59286;59.274;17.974;2023-02-24T07:37:49;4.65;;;3.53;;
71475;SDS011;59286;59.274;17.974;2023-02-24T07:40:15;4.60;;;3.70;;
71475;SDS011;59286;59.274;17.974;2023-02-24T07:42:44;4.55;;;4.07;;
71475;SDS011;59286;59.274;17.974;2023-02-24T07:45:11;3.85;;;3.45;;
71475;SDS011;59286;59.274;17.974;2023-02-24T07:47:37;4.05;;;3.65;;
71475;SDS011;59286;59.274;17.974;2023-02-24T07:50:03;4.13;;;3.72;;
71475;SDS011;59286;59.274;17.974;2023-02-24T07:52:34;3.97;;;3.58;;
71475;SDS011;59286;59.274;17.974;2023-02-24T07:55:00;4.03;;;3.65;;
71475;SDS011;59286;59.274;17.974;2023-02-24T07:57:26;3.92;;;3.55;;
71475;SDS011;59286;59.274;17.974;2023-02-24T07:59:52;4.07;;;3.67;;
71475;SDS011;59286;59.274;17.974;2023-02-24T08:02:18;4.13;;;3.55;;
71475;SDS011;59286;59.274;17.974;2023-02-24T08:04:43;4.03;;;3.63;;
71475;SDS011;59286;59.274;17.974;2023-02-24T08:07:13;4.50;;;3.53;;
71475;SDS011;59286;59.274;17.974;2023-02-24T08:09:39;4.47;;;3.88;;
71475;SDS011;59286;59.274;17.974;2023-02-24T08:12:08;4.32;;;3.50;;
71475;SDS011;59286;59.274;17.974;2023-02-24T08:14:45;3.95;;;3.60;;
71475;SDS011;59286;59.274;17.974;2023-02-24T08:17:16;5.32;;;3.95;;
71475;SDS011;59286;59.274;17.974;2023-02-24T08:19:46;3.78;;;3.47;;
71475;SDS011;59286;59.274;17.974;2023-02-24T08:22:13;3.50;;;3.20;;
71475;SDS011;59286;59.274;17.974;2023-02-24T08:24:50;3.83;;;3.33;;
71475;SDS011;59286;59.274;17.974;2023-02-24T08:27:21;4.38;;;3.50;;
71475;SDS011;59286;59.274;17.974;2023-02-24T08:29:50;4.50;;;3.30;;
71475;SDS011;59286;59.274;17.974;2023-02-24T08:32:34;3.72;;;3.35;;
71475;SDS011;59286;59.274;17.974;2023-02-24T08:35:17;3.78;;;3.38;;
71475;SDS011;59286;59.274;17.974;2023-02-24T08:37:48;3.60;;;3.22;;
71475;SDS011;59286;59.274;17.974;2023-02-24T08:40:17;5.68;;;3.50;;
71475;SDS011;59286;59.274;17.974;2023-02-24T08:43:14;5.28;;;3.58;;
71475;SDS011;59286;59.274;17.974;2023-02-24T08:45:45;3.70;;;3.30;;
71475;SDS011;59286;59.274;17.974;2023-02-24T08:48:16;5.50;;;3.78;;
71475;SDS011;59286;59.274;17.974;2023-02-24T08:50:51;5.00;;;3.22;;
71475;SDS011;59286;59.274;17.974;2023-02-24T08:53:20;3.20;;;3.00;;
71475;SDS011;59286;59.274;17.974;2023-02-24T08:55:49;3.22;;;3.00;;
71475;SDS011;59286;59.274;17.974;2023-02-24T08:58:18;4.40;;;3.30;;
71475;SDS011;59286;59.274;17.974;2023-02-24T09:00:44;5.07;;;3.53;;
71475;SDS011;59286;59.274;17.974;2023-02-24T09:03:14;3.13;;;2.88;;
71475;SDS011;59286;59.274;17.974;2023-02-24T09:06:04;3.53;;;3.22;;
71475;SDS011;59286;59.274;17.974;2023-02-24T09:08:33;3.50;;;3.20;;
71475;SDS011;59286;59.274;17.974;2023-02-24T09:11:04;4.05;;;3.08;;
71475;SDS011;59286;59.274;17.974;2023-02-24T09:13:38;3.25;;;2.55;;
71475;SDS011;59286;59.274;17.974;2023-02-24T09:16:15;3.92;;;3.20;;
71475;SDS011;59286;59.274;17.974;2023-02-24T09:18:47;3.20;;;2.83;;
71475;SDS011;59286;59.274;17.974;2023-02-24T09:21:33;3.83;;;3.53;;
71475;SDS011;59286;59.274;17.974;2023-02-24T09:24:17;3.40;;;3.08;;
71475;SDS011;59286;59.274;17.974;2023-02-24T09:26:52;4.00;;;2.58;;
71475;SDS011;59286;59.274;17.974;2023-02-24T09:29:23;3.92;;;2.90;;
71475;SDS011;59286;59.274;17.974;2023-02-24T09:32:13;3.28;;;2.90;;
71475;SDS011;59286;59.274;17.974;2023-02-24T09:34:40;2.80;;;2.60;;
71475;SDS011;59286;59.274;17.974;2023-02-24T09:37:09;3.88;;;3.10;;
71475;SDS011;59286;59.274;17.974;2023-02-24T09:39:51;2.97;;;2.67;;
71475;SDS011;59286;59.274;17.974;2023-02-24T09:42:21;3.30;;;2.97;;
71475;SDS011;59286;59.274;17.974;2023-02-24T09:44:55;2.97;;;2.67;;
71475;SDS011;59286;59.274;17.974;2023-02-24T09:47:27;3.30;;;3.00;;
71475;SDS011;59286;59.274;17.974;2023-02-24T09:52:37;3.47;;;2.67;;
71475;SDS011;59286;59.274;17.974;2023-02-24T09:55:16;4.20;;;3.03;;
71475;SDS011;59286;59.274;17.974;2023-02-24T10:03:20;2.92;;;2.70;;
71475;SDS011;59286;59.274;17.974;2023-02-24T10:08:41;3.40;;;2.50;;
71475;SDS011;59286;59.274;17.974;2023-02-24T10:11:11;3.08;;;2.40;;
71475;SDS011;59286;59.274;17.974;2023-02-24T10:13:44;3.65;;;2.50;;
71475;SDS011;59286;59.274;17.974;2023-02-24T10:16:14;2.95;;;2.28;;
71475;SDS011;59286;59.274;17.974;2023-02-24T10:18:51;3.10;;;2.10;;
71475;SDS011;59286;59.274;17.974;2023-02-24T10:21:52;4.20;;;2.25;;
71475;SDS011;59286;59.274;17.974;2023-02-24T10:24:36;2.50;;;2.17;;
71475;SDS011;59286;59.274;17.974;2023-02-24T10:34:35;3.72;;;2.17;;
71475;SDS011;59286;59.274;17.974;2023-02-24T10:37:01;3.20;;;2.65;;
71475;SDS011;59286;59.274;17.974;2023-02-24T10:39:35;3.60;;;2.23;;
71475;SDS011;59286;59.274;17.974;2023-02-24T10:42:02;3.22;;;2.22;;
71475;SDS011;59286;59.274;17.974;2023-02-24T10:44:51;2.22;;;2.03;;
71475;SDS011;59286;59.274;17.974;2023-02-24T10:47:36;2.75;;;2.42;;
71475;SDS011;59286;59.274;17.974;2023-02-24T10:50:17;2.78;;;2.22;;
71475;SDS011;59286;59.274;17.974;2023-02-24T10:53:05;3.15;;;1.80;;
71475;SDS011;59286;59.274;17.974;2023-02-24T10:55:49;1.92;;;1.55;;
71475;SDS011;59286;59.274;17.974;2023-02-24T10:58:32;1.63;;;1.50;;
71475;SDS011;59286;59.274;17.974;2023-02-24T11:03:46;3.80;;;1.60;;
71475;SDS011;59286;59.274;17.974;2023-02-24T11:06:29;1.90;;;1.40;;
71475;SDS011;59286;59.274;17.974;2023-02-24T11:09:25;1.70;;;1.50;;
71475;SDS011;59286;59.274;17.974;2023-02-24T11:12:03;1.40;;;1.27;;
71475;SDS011;59286;59.274;17.974;2023-02-24T11:14:57;1.45;;;1.20;;
71475;SDS011;59286;59.274;17.974;2023-02-24T11:17:48;1.52;;;1.30;;
71475;SDS011;59286;59.274;17.974;2023-02-24T11:22:43;1.83;;;1.20;;
71475;SDS011;59286;59.274;17.974;2023-02-24T11:25:26;1.67;;;1.00;;
71475;SDS011;59286;59.274;17.974;2023-02-24T11:27:59;2.08;;;0.90;;
71475;SDS011;59286;59.274;17.974;2023-02-24T11:30:41;1.38;;;0.90;;
71475;SDS011;59286;59.274;17.974;2023-02-24T11:33:32;3.47;;;1.00;;
71475;SDS011;59286;59.274;17.974;2023-02-24T11:39:02;1.90;;;1.10;;
71475;SDS011;59286;59.274;17.974;2023-02-24T11:41:39;2.42;;;1.10;;
71475;SDS011;59286;59.274;17.974;2023-02-24T11:44:16;1.67;;;0.88;;
71475;SDS011;59286;59.274;17.974;2023-02-24T11:46:57;3.65;;;1.20;;
71475;SDS011;59286;59.274;17.974;2023-02-24T11:49:28;2.05;;;1.15;;
71475;SDS011;59286;59.274;17.974;2023-02-24T11:52:00;2.28;;;1.10;;
71475;SDS011;59286;59.274;17.974;2023-02-24T11:54:38;2.05;;;1.15;;
71475;SDS011;59286;59.274;17.974;2023-02-24T11:57:11;2.47;;;1.10;;
71475;SDS011;59286;59.274;17.974;2023-02-24T11:59:45;2.95;;;1.40;;
71475;SDS011;59286;59.274;17.974;2023-02-24T12:02:30;2.70;;;1.27;;
71475;SDS011;59286;59.274;17.974;2023-02-24T12:05:18;2.25;;;1.20;;
71475;SDS011;59286;59.274;17.974;2023-02-24T12:07:55;3.03;;;1.15;;
71475;SDS011;59286;59.274;17.974;2023-02-24T12:10:37;1.20;;;0.80;;
71475;SDS011;59286;59.274;17.974;2023-02-24T12:13:15;2.00;;;0.87;;
71475;SDS011;59286;59.274;17.974;2023-02-24T12:15:47;2.30;;;0.98;;
71475;SDS011;59286;59.274;17.974;2023-02-24T12:18:38;1.35;;;0.82;;
71475;SDS011;59286;59.274;17.974;2023-02-24T12:21:13;1.50;;;1.00;;
71475;SDS011;59286;59.274;17.974;2023-02-24T12:23:44;3.05;;;1.10;;
71475;SDS011;59286;59.274;17.974;2023-02-24T12:28:57;1.60;;;1.05;;
71475;SDS011;59286;59.274;17.974;2023-02-24T12:34:24;2.17;;;1.10;;
71475;SDS011;59286;59.274;17.974;2023-02-24T12:40:11;1.98;;;0.90;;
71475;SDS011;59286;59.274;17.974;2023-02-24T12:50:47;2.08;;;1.00;;
71475;SDS011;59286;59.274;17.974;2023-02-24T12:53:58;2.50;;;0.93;;
71475;SDS011;59286;59.274;17.974;2023-02-24T12:56:40;1.98;;;0.90;;
71475;SDS011;59286;59.274;17.974;2023-02-24T12:59:13;3.13;;;0.90;;
71475;SDS011;59286;59.274;17.974;2023-02-24T13:01:58;2.90;;;0.90;;
71475;SDS011;59286;59.274;17.974;2023-02-24T13:07:35;2.08;;;0.90;;
71475;SDS011;59286;59.274;17.974;2023-02-24T13:10:41;1.10;;;0.75;;
71475;SDS011;59286;59.274;17.974;2023-02-24T13:15:57;0.77;;;0.75;;
71475;SDS011;59286;59.274;17.974;2023-02-24T13:18:33;4.70;;;1.20;;
71475;SDS011;59286;59.274;17.974;2023-02-24T13:21:08;2.55;;;1.30;;
71475;SDS011;59286;59.274;17.974;2023-02-24T13:23:58;2.60;;;1.30;;
71475;SDS011;59286;59.274;17.974;2023-02-24T13:26:26;3.83;;;1.38;;
71475;SDS011;59286;59.274;17.974;2023-02-24T13:29:02;2.78;;;1.08;;
71475;SDS011;59286;59.274;17.974;2023-02-24T13:31:47;4.72;;;2.45;;
71475;SDS011;59286;59.274;17.974;2023-02-24T13:36:49;2.60;;;1.15;;
71475;SDS011;59286;59.274;17.974;2023-02-24T13:39:34;6.55;;;1.85;;
71475;SDS011;59286;59.274;17.974;2023-02-24T13:44:50;2.05;;;1.05;;
71475;SDS011;59286;59.274;17.974;2023-02-24T13:50:02;3.72;;;1.05;;
71475;SDS011;59286;59.274;17.974;2023-02-24T13:55:20;4.07;;;0.85;;
71475;SDS011;59286;59.274;17.974;2023-02-24T14:03:32;4.78;;;1.40;;
71475;SDS011;59286;59.274;17.974;2023-02-24T14:05:59;3.10;;;1.50;;
71475;SDS011;59286;59.274;17.974;2023-02-24T14:11:03;4.95;;;1.65;;
71475;SDS011;59286;59.274;17.974;2023-02-24T14:13:34;3.90;;;1.85;;
71475;SDS011;59286;59.274;17.974;2023-02-24T14:16:03;9.45;;;2.13;;
71475;SDS011;59286;59.274;17.974;2023-02-24T14:18:31;3.42;;;1.70;;
71475;SDS011;59286;59.274;17.974;2023-02-24T14:20:57;4.78;;;1.75;;
71475;SDS011;59286;59.274;17.974;2023-02-24T14:25:56;8.05;;;1.70;;
71475;SDS011;59286;59.274;17.974;2023-02-24T14:28:34;5.65;;;2.00;;
71475;SDS011;59286;59.274;17.974;2023-02-24T14:31:11;8.50;;;2.55;;
71475;SDS011;59286;59.274;17.974;2023-02-24T14:33:40;7.03;;;2.05;;
71475;SDS011;59286;59.274;17.974;2023-02-24T14:36:17;6.97;;;1.80;;
71475;SDS011;59286;59.274;17.974;2023-02-24T14:38:56;7.95;;;1.60;;
71475;SDS011;59286;59.274;17.974;2023-02-24T14:41:32;4.40;;;1.30;;
71475;SDS011;59286;59.274;17.974;2023-02-24T14:44:03;4.68;;;1.13;;
71475;SDS011;59286;59.274;17.974;2023-02-24T14:46:32;5.70;;;1.58;;
71475;SDS011;59286;59.274;17.974;2023-02-24T14:48:57;3.58;;;1.23;;
71475;SDS011;59286;59.274;17.974;2023-02-24T14:51:32;4.50;;;1.70;;
71475;SDS011;59286;59.274;17.974;2023-02-24T14:54:01;5.20;;;1.40;;
71475;SDS011;59286;59.274;17.974;2023-02-24T14:56:30;6.82;;;1.42;;
71475;SDS011;59286;59.274;17.974;2023-02-24T14:59:21;6.90;;;1.38;;
71475;SDS011;59286;59.274;17.974;2023-02-24T15:01:57;3.83;;;1.58;;
71475;SDS011;59286;59.274;17.974;2023-02-24T15:06:52;3.63;;;1.40;;
71475;SDS011;59286;59.274;17.974;2023-02-24T15:09:18;7.38;;;1.50;;
71475;SDS011;59286;59.274;17.974;2023-02-24T15:11:47;4.78;;;1.30;;
71475;SDS011;59286;59.274;17.974;2023-02-24T15:16:46;3.17;;;1.23;;
71475;SDS011;59286;59.274;17.974;2023-02-24T15:19:32;3.13;;;1.30;;
71475;SDS011;59286;59.274;17.974;2023-02-24T15:22:03;5.55;;;1.27;;
71475;SDS011;59286;59.274;17.974;2023-02-24T15:24:42;5.03;;;1.50;;
71475;SDS011;59286;59.274;17.974;2023-02-24T15:29:38;2.13;;;1.10;;
71475;SDS011;59286;59.274;17.974;2023-02-24T15:32:09;3.17;;;1.50;;
71475;SDS011;59286;59.274;17.974;2023-02-24T15:34:43;5.75;;;1.85;;
71475;SDS011;59286;59.274;17.974;2023-02-24T15:37:21;3.40;;;1.33;;
71475;SDS011;59286;59.274;17.974;2023-02-24T15:39:49;4.35;;;1.10;;
71475;SDS011;59286;59.274;17.974;2023-02-24T15:42:30;3.50;;;1.30;;
71475;SDS011;59286;59.274;17.974;2023-02-24T15:44:58;5.03;;;1.45;;
71475;SDS011;59286;59.274;17.974;2023-02-24T15:47:28;6.30;;;1.48;;
71475;SDS011;59286;59.274;17.974;2023-02-24T15:50:04;4.25;;;1.40;;
71475;SDS011;59286;59.274;17.974;2023-02-24T15:52:29;6.03;;;1.35;;
71475;SDS011;59286;59.274;17.974;2023-02-24T15:54:55;6.68;;;1.30;;
71475;SDS011;59286;59.274;17.974;2023-02-24T15:57:23;7.47;;;1.42;;
71475;SDS011;59286;59.274;17.974;2023-02-24T15:59:49;4.25;;;1.35;;
71475;SDS011;59286;59.274;17.974;2023-02-24T16:02:16;5.45;;;1.30;;
71475;SDS011;59286;59.274;17.974;2023-02-24T16:04:43;2.47;;;1.30;;
71475;SDS011;59286;59.274;17.974;2023-02-24T16:07:10;4.85;;;1.58;;
71475;SDS011;59286;59.274;17.974;2023-02-24T16:09:41;4.13;;;1.20;;
71475;SDS011;59286;59.274;17.974;2023-02-24T16:12:09;5.65;;;1.20;;
71475;SDS011;59286;59.274;17.974;2023-02-24T16:14:40;4.03;;;1.40;;
71475;SDS011;59286;59.274;17.974;2023-02-24T16:17:17;5.13;;;1.27;;
71475;SDS011;59286;59.274;17.974;2023-02-24T16:19:50;6.53;;;2.17;;
71475;SDS011;59286;59.274;17.974;2023-02-24T16:22:16;3.22;;;1.27;;
71475;SDS011;59286;59.274;17.974;2023-02-24T16:24:41;5.18;;;1.10;;
71475;SDS011;59286;59.274;17.974;2023-02-24T16:27:09;4.95;;;1.35;;
71475;SDS011;59286;59.274;17.974;2023-02-24T16:29:40;3.50;;;1.20;;
71475;SDS011;59286;59.274;17.974;2023-02-24T16:32:07;5.80;;;1.77;;
71475;SDS011;59286;59.274;17.974;2023-02-24T16:34:34;3.97;;;1.50;;
71475;SDS011;59286;59.274;17.974;2023-02-24T16:37:00;8.30;;;1.65;;
71475;SDS011;59286;59.274;17.974;2023-02-24T16:39:25;2.72;;;1.80;;
71475;SDS011;59286;59.274;17.974;2023-02-24T16:41:50;7.93;;;1.50;;
71475;SDS011;59286;59.274;17.974;2023-02-24T16:44:16;6.63;;;1.52;;
71475;SDS011;59286;59.274;17.974;2023-02-24T16:46:41;5.75;;;2.58;;
71475;SDS011;59286;59.274;17.974;2023-02-24T16:49:09;7.85;;;2.00;;
71475;SDS011;59286;59.274;17.974;2023-02-24T16:51:41;7.60;;;3.65;;
71475;SDS011;59286;59.274;17.974;2023-02-24T16:54:06;7.85;;;2.33;;